DAUE

Details ICAO DAUE (ELG)
Name EL GOLEA
Region Algeria
Timezone Africa/Algiers (UTC+1.0)
Plans Departing 14
Arriving 16
Stats Elevation 1,306 ft / 398 m (AMSL)
Location 30.577292° 2.864236°
Runways 2
Magnetic Variation 0.775° E
Sunrise 2018-05-22 04:51:42 UTC / 2018-05-22 05:51:42 Local
Sunset 2018-05-22 18:41:34 UTC / 2018-05-22 19:41:34 Local
Advertisement - Login to hide

Runways

ID Width Length Bearing (true) Bearing (mag) Surface Threshold Offset Overrun Length
10 148 ft / 45 m 5,887 ft / 1,794 m 101.92° 101.15° Asphalt 0 ft / 0 m 0 ft / 0 m
18 148 ft / 45 m 9,833 ft / 2,997 m 179.49° 178.72° Asphalt 0 ft / 0 m 350 ft / 107 m
28 148 ft / 45 m 5,887 ft / 1,794 m 281.93° 281.16° Asphalt 0 ft / 0 m 0 ft / 0 m
36 148 ft / 45 m 9,833 ft / 2,997 m 359.49° 358.72° Asphalt 0 ft / 0 m 0 ft / 0 m

Map

Weather


0- 5 10 15 20 25 30 35+ Temperature / ° C

Clouds and Precipitation
Forecast for 2018-05-22 12:00 UTC. Updated 5 hours ago

Ground ~20,000 ft ~40,000 ft Winds

METAR

DAUE 221600Z 22004KT 9999 FEW033 34/13 Q1013

TAF

Not found

Frequencies

Tower 119.70 MHz TWR
Warning: Do not use this data for real-world aviation or navigation. No guarantee of current accuracy is given.